sensor_id;sensor_type;location;lat;lon;timestamp;P1;durP1;ratioP1;P2;durP2;ratioP2
62457;SDS011;48509;52.122;5.250;2022-12-16T00:00:00;105.9;;;79.2;;
62457;SDS011;48509;52.122;5.250;2022-12-16T00:01:36;80.8;;;60.2;;
62457;SDS011;48509;52.122;5.250;2022-12-16T00:04:48;94.5;;;69.7;;
62457;SDS011;48509;52.122;5.250;2022-12-16T00:06:25;84.1;;;62.6;;
62457;SDS011;48509;52.122;5.250;2022-12-16T00:08:06;107.7;;;85.2;;
62457;SDS011;48509;52.122;5.250;2022-12-16T00:11:18;93.7;;;66.7;;
62457;SDS011;48509;52.122;5.250;2022-12-16T00:12:55;90.5;;;66.1;;
62457;SDS011;48509;52.122;5.250;2022-12-16T00:14:31;91.3;;;69.11;;
62457;SDS011;48509;52.122;5.250;2022-12-16T00:16:08;88.8;;;64.91;;
62457;SDS011;48509;52.122;5.250;2022-12-16T00:19:23;88.6;;;65.91;;
62457;SDS011;48509;52.122;5.250;2022-12-16T00:20:59;98.7;;;70.11;;
62457;SDS011;48509;52.122;5.250;2022-12-16T00:22:36;93.8;;;68.3;;
62457;SDS011;48509;52.122;5.250;2022-12-16T00:25:49;104.4;;;75.61;;
62457;SDS011;48509;52.122;5.250;2022-12-16T00:27:26;104.5;;;81.0;;
62457;SDS011;48509;52.122;5.250;2022-12-16T00:29:04;99.6;;;74.3;;
62457;SDS011;48509;52.122;5.250;2022-12-16T00:32:18;104.0;;;79.11;;
62457;SDS011;48509;52.122;5.250;2022-12-16T00:33:54;101.0;;;75.61;;
62457;SDS011;48509;52.122;5.250;2022-12-16T00:35:31;102.7;;;77.8;;
62457;SDS011;48509;52.122;5.250;2022-12-16T00:37:10;115.7;;;87.4;;
62457;SDS011;48509;52.122;5.250;2022-12-16T00:40:23;89.1;;;63.7;;
62457;SDS011;48509;52.122;5.250;2022-12-16T00:42:00;100.1;;;76.41;;
62457;SDS011;48509;52.122;5.250;2022-12-16T00:43:36;107.2;;;80.61;;
62457;SDS011;48509;52.122;5.250;2022-12-16T00:46:48;102.3;;;78.2;;
62457;SDS011;48509;52.122;5.250;2022-12-16T00:48:25;99.9;;;74.11;;
62457;SDS011;48509;52.122;5.250;2022-12-16T00:50:02;111.2;;;83.2;;
62457;SDS011;48509;52.122;5.250;2022-12-16T00:53:16;91.9;;;65.2;;
62457;SDS011;48509;52.122;5.250;2022-12-16T00:54:52;111.2;;;82.3;;
62457;SDS011;48509;52.122;5.250;2022-12-16T00:56:29;115.0;;;87.1;;
62457;SDS011;48509;52.122;5.250;2022-12-16T00:58:05;99.4;;;73.0;;
62457;SDS011;48509;52.122;5.250;2022-12-16T01:01:17;103.0;;;74.11;;
62457;SDS011;48509;52.122;5.250;2022-12-16T01:02:54;103.0;;;74.11;;
62457;SDS011;48509;52.122;5.250;2022-12-16T01:04:30;114.0;;;86.0;;
62457;SDS011;48509;52.122;5.250;2022-12-16T01:06:07;113.1;;;88.2;;
62457;SDS011;48509;52.122;5.250;2022-12-16T01:09:21;123.5;;;94.6;;
62457;SDS011;48509;52.122;5.250;2022-12-16T01:10:57;97.0;;;74.91;;
62457;SDS011;48509;52.122;5.250;2022-12-16T01:12:34;125.8;;;95.9;;
62457;SDS011;48509;52.122;5.250;2022-12-16T01:15:47;116.2;;;89.9;;
62457;SDS011;48509;52.122;5.250;2022-12-16T01:17:25;91.7;;;68.0;;
62457;SDS011;48509;52.122;5.250;2022-12-16T01:19:02;104.4;;;77.0;;
62457;SDS011;48509;52.122;5.250;2022-12-16T01:22:14;94.1;;;71.91;;
62457;SDS011;48509;52.122;5.250;2022-12-16T01:23:50;108.8;;;80.11;;
62457;SDS011;48509;52.122;5.250;2022-12-16T01:25:27;91.6;;;68.0;;
62457;SDS011;48509;52.122;5.250;2022-12-16T01:27:03;83.8;;;60.8;;
62457;SDS011;48509;52.122;5.250;2022-12-16T01:30:16;92.3;;;67.7;;
62457;SDS011;48509;52.122;5.250;2022-12-16T01:31:52;88.3;;;66.0;;
62457;SDS011;48509;52.122;5.250;2022-12-16T01:33:29;85.2;;;62.4;;
62457;SDS011;48509;52.122;5.250;2022-12-16T01:36:44;82.9;;;60.5;;
62457;SDS011;48509;52.122;5.250;2022-12-16T01:38:20;93.7;;;69.7;;
62457;SDS011;48509;52.122;5.250;2022-12-16T01:39:56;91.2;;;64.6;;
62457;SDS011;48509;52.122;5.250;2022-12-16T01:43:09;93.8;;;68.5;;
62457;SDS011;48509;52.122;5.250;2022-12-16T01:44:48;84.6;;;63.4;;
62457;SDS011;48509;52.122;5.250;2022-12-16T01:46:26;95.4;;;74.11;;
62457;SDS011;48509;52.122;5.250;2022-12-16T01:48:04;91.6;;;69.3;;
62457;SDS011;48509;52.122;5.250;2022-12-16T01:51:37;82.6;;;62.2;;
62457;SDS011;48509;52.122;5.250;2022-12-16T01:53:17;90.5;;;70.0;;
62457;SDS011;48509;52.122;5.250;2022-12-16T01:54:55;89.0;;;62.8;;
62457;SDS011;48509;52.122;5.250;2022-12-16T01:56:35;97.3;;;76.91;;
62457;SDS011;48509;52.122;5.250;2022-12-16T01:59:57;87.0;;;65.91;;
62457;SDS011;48509;52.122;5.250;2022-12-16T02:01:36;98.8;;;75.0;;
62457;SDS011;48509;52.122;5.250;2022-12-16T02:03:12;88.2;;;66.91;;
62457;SDS011;48509;52.122;5.250;2022-12-16T02:05:21;89.8;;;69.0;;
62457;SDS011;48509;52.122;5.250;2022-12-16T02:06:58;88.9;;;71.3;;
62457;SDS011;48509;52.122;5.250;2022-12-16T02:10:12;81.7;;;62.4;;
62457;SDS011;48509;52.122;5.250;2022-12-16T02:11:56;97.8;;;74.7;;
62457;SDS011;48509;52.122;5.250;2022-12-16T02:14:11;99.6;;;78.7;;
62457;SDS011;48509;52.122;5.250;2022-12-16T02:16:04;88.2;;;64.6;;
62457;SDS011;48509;52.122;5.250;2022-12-16T02:20:39;95.4;;;74.91;;
62457;SDS011;48509;52.122;5.250;2022-12-16T02:22:39;95.3;;;72.41;;
62457;SDS011;48509;52.122;5.250;2022-12-16T02:28:41;79.3;;;59.0;;
62457;SDS011;48509;52.122;5.250;2022-12-16T02:30:42;93.0;;;74.7;;
62457;SDS011;48509;52.122;5.250;2022-12-16T02:32:38;79.3;;;60.0;;
62457;SDS011;48509;52.122;5.250;2022-12-16T02:34:28;89.1;;;67.8;;
62457;SDS011;48509;52.122;5.250;2022-12-16T02:36:15;75.8;;;58.8;;
62457;SDS011;48509;52.122;5.250;2022-12-16T02:39:51;90.0;;;68.7;;
62457;SDS011;48509;52.122;5.250;2022-12-16T02:41:36;72.8;;;54.6;;
62457;SDS011;48509;52.122;5.250;2022-12-16T02:43:21;87.7;;;64.41;;
62457;SDS011;48509;52.122;5.250;2022-12-16T02:45:17;85.3;;;65.5;;
62457;SDS011;48509;52.122;5.250;2022-12-16T02:46:59;82.3;;;59.0;;
62457;SDS011;48509;52.122;5.250;2022-12-16T02:48:35;80.0;;;60.1;;
62457;SDS011;48509;52.122;5.250;2022-12-16T02:51:55;86.9;;;67.5;;
62457;SDS011;48509;52.122;5.250;2022-12-16T02:53:35;83.2;;;62.1;;
62457;SDS011;48509;52.122;5.250;2022-12-16T02:55:14;83.0;;;63.1;;
62457;SDS011;48509;52.122;5.250;2022-12-16T02:58:44;83.2;;;64.6;;
62457;SDS011;48509;52.122;5.250;2022-12-16T03:00:29;73.7;;;54.8;;
62457;SDS011;48509;52.122;5.250;2022-12-16T03:02:18;70.5;;;51.3;;
62457;SDS011;48509;52.122;5.250;2022-12-16T03:04:01;63.7;;;49.0;;
62457;SDS011;48509;52.122;5.250;2022-12-16T03:05:47;61.1;;;45.2;;
62457;SDS011;48509;52.122;5.250;2022-12-16T03:07:26;66.91;;;49.0;;
62457;SDS011;48509;52.122;5.250;2022-12-16T03:10:51;68.2;;;53.0;;
62457;SDS011;48509;52.122;5.250;2022-12-16T03:12:32;65.5;;;50.3;;
62457;SDS011;48509;52.122;5.250;2022-12-16T03:14:13;61.0;;;47.7;;
62457;SDS011;48509;52.122;5.250;2022-12-16T03:15:52;66.91;;;49.5;;
62457;SDS011;48509;52.122;5.250;2022-12-16T03:19:12;56.6;;;43.7;;
62457;SDS011;48509;52.122;5.250;2022-12-16T03:20:51;54.5;;;41.0;;
62457;SDS011;48509;52.122;5.250;2022-12-16T03:22:31;65.41;;;51.6;;
62457;SDS011;48509;52.122;5.250;2022-12-16T03:24:12;59.4;;;47.4;;
62457;SDS011;48509;52.122;5.250;2022-12-16T03:27:34;64.5;;;50.8;;
62457;SDS011;48509;52.122;5.250;2022-12-16T03:29:21;73.7;;;56.9;;
62457;SDS011;48509;52.122;5.250;2022-12-16T03:31:06;56.7;;;44.0;;
62457;SDS011;48509;52.122;5.250;2022-12-16T03:32:55;53.4;;;40.6;;
62457;SDS011;48509;52.122;5.250;2022-12-16T03:36:20;50.9;;;39.71;;
62457;SDS011;48509;52.122;5.250;2022-12-16T03:37:59;60.8;;;46.6;;
62457;SDS011;48509;52.122;5.250;2022-12-16T03:39:40;63.9;;;49.1;;
62457;SDS011;48509;52.122;5.250;2022-12-16T03:41:19;48.3;;;38.71;;
62457;SDS011;48509;52.122;5.250;2022-12-16T03:43:00;75.8;;;59.6;;
62457;SDS011;48509;52.122;5.250;2022-12-16T03:46:14;52.4;;;40.5;;
62457;SDS011;48509;52.122;5.250;2022-12-16T03:47:52;73.3;;;56.0;;
62457;SDS011;48509;52.122;5.250;2022-12-16T03:49:31;75.2;;;56.9;;
62457;SDS011;48509;52.122;5.250;2022-12-16T03:52:43;47.2;;;38.9;;
62457;SDS011;48509;52.122;5.250;2022-12-16T03:54:19;47.6;;;37.81;;
62457;SDS011;48509;52.122;5.250;2022-12-16T03:55:56;50.7;;;40.1;;
62457;SDS011;48509;52.122;5.250;2022-12-16T03:59:10;52.0;;;41.0;;
62457;SDS011;48509;52.122;5.250;2022-12-16T04:00:46;65.8;;;51.8;;
62457;SDS011;48509;52.122;5.250;2022-12-16T04:02:22;71.41;;;53.9;;
62457;SDS011;48509;52.122;5.250;2022-12-16T04:03:58;67.3;;;51.3;;
62457;SDS011;48509;52.122;5.250;2022-12-16T04:07:26;65.8;;;49.0;;
62457;SDS011;48509;52.122;5.250;2022-12-16T04:09:02;63.2;;;50.2;;
62457;SDS011;48509;52.122;5.250;2022-12-16T04:24:26;73.3;;;55.4;;
62457;SDS011;48509;52.122;5.250;2022-12-16T04:26:05;68.41;;;52.9;;
62457;SDS011;48509;52.122;5.250;2022-12-16T04:27:45;59.9;;;45.1;;
62457;SDS011;48509;52.122;5.250;2022-12-16T04:29:22;62.7;;;48.0;;
62457;SDS011;48509;52.122;5.250;2022-12-16T04:34:24;54.8;;;43.3;;
62457;SDS011;48509;52.122;5.250;2022-12-16T22:12:42;165.2;;;98.4;;
62457;SDS011;48509;52.122;5.250;2022-12-16T22:14:30;152.1;;;90.7;;
62457;SDS011;48509;52.122;5.250;2022-12-16T22:16:07;153.0;;;90.9;;
62457;SDS011;48509;52.122;5.250;2022-12-16T22:19:19;139.81;;;83.1;;
62457;SDS011;48509;52.122;5.250;2022-12-16T22:20:56;177.5;;;99.6;;
62457;SDS011;48509;52.122;5.250;2022-12-16T22:22:34;158.6;;;92.3;;
62457;SDS011;48509;52.122;5.250;2022-12-16T22:25:53;126.5;;;77.0;;
62457;SDS011;48509;52.122;5.250;2022-12-16T22:27:30;142.0;;;85.0;;
62457;SDS011;48509;52.122;5.250;2022-12-16T22:29:06;117.4;;;72.41;;
62457;SDS011;48509;52.122;5.250;2022-12-16T22:30:43;172.3;;;98.3;;
62457;SDS011;48509;52.122;5.250;2022-12-16T22:33:58;176.5;;;99.2;;
62457;SDS011;48509;52.122;5.250;2022-12-16T22:35:34;157.9;;;91.8;;
62457;SDS011;48509;52.122;5.250;2022-12-16T22:37:10;140.5;;;83.5;;
62457;SDS011;48509;52.122;5.250;2022-12-16T22:40:23;139.6;;;84.3;;
62457;SDS011;48509;52.122;5.250;2022-12-16T22:41:59;147.0;;;88.2;;
62457;SDS011;48509;52.122;5.250;2022-12-16T22:43:35;176.2;;;97.6;;
62457;SDS011;48509;52.122;5.250;2022-12-16T22:46:47;107.7;;;70.61;;
62457;SDS011;48509;52.122;5.250;2022-12-16T22:48:23;194.5;;;105.5;;
62457;SDS011;48509;52.122;5.250;2022-12-16T22:50:01;118.6;;;74.2;;
62457;SDS011;48509;52.122;5.250;2022-12-16T22:54:49;160.9;;;92.9;;
62457;SDS011;48509;52.122;5.250;2022-12-16T22:56:25;153.1;;;89.5;;
62457;SDS011;48509;52.122;5.250;2022-12-16T22:58:05;149.6;;;85.9;;
62457;SDS011;48509;52.122;5.250;2022-12-16T23:01:18;165.8;;;93.4;;
62457;SDS011;48509;52.122;5.250;2022-12-16T23:02:55;141.81;;;84.5;;
62457;SDS011;48509;52.122;5.250;2022-12-16T23:04:31;184.0;;;100.5;;
62457;SDS011;48509;52.122;5.250;2022-12-16T23:07:44;142.6;;;85.9;;
62457;SDS011;48509;52.122;5.250;2022-12-16T23:09:21;154.1;;;88.1;;
62457;SDS011;48509;52.122;5.250;2022-12-16T23:10:57;119.7;;;75.11;;
62457;SDS011;48509;52.122;5.250;2022-12-16T23:12:34;141.81;;;84.1;;
62457;SDS011;48509;52.122;5.250;2022-12-16T23:15:46;137.4;;;83.1;;
62457;SDS011;48509;52.122;5.250;2022-12-16T23:17:22;164.2;;;95.2;;
62457;SDS011;48509;52.122;5.250;2022-12-16T23:18:59;168.1;;;95.1;;
62457;SDS011;48509;52.122;5.250;2022-12-16T23:22:11;166.5;;;95.4;;
62457;SDS011;48509;52.122;5.250;2022-12-16T23:23:50;157.1;;;90.2;;
62457;SDS011;48509;52.122;5.250;2022-12-16T23:25:26;127.3;;;77.3;;
62457;SDS011;48509;52.122;5.250;2022-12-16T23:28:39;115.2;;;73.8;;
62457;SDS011;48509;52.122;5.250;2022-12-16T23:30:15;124.7;;;77.8;;
62457;SDS011;48509;52.122;5.250;2022-12-16T23:31:51;113.9;;;73.8;;
62457;SDS011;48509;52.122;5.250;2022-12-16T23:33:27;163.21;;;93.5;;
62457;SDS011;48509;52.122;5.250;2022-12-16T23:36:40;116.6;;;74.11;;
62457;SDS011;48509;52.122;5.250;2022-12-16T23:38:17;143.4;;;86.7;;
62457;SDS011;48509;52.122;5.250;2022-12-16T23:39:53;155.1;;;91.8;;
62457;SDS011;48509;52.122;5.250;2022-12-16T23:43:05;148.0;;;87.5;;
62457;SDS011;48509;52.122;5.250;2022-12-16T23:44:41;171.0;;;97.3;;
62457;SDS011;48509;52.122;5.250;2022-12-16T23:46:17;172.0;;;95.7;;
62457;SDS011;48509;52.122;5.250;2022-12-16T23:49:35;157.21;;;89.9;;
62457;SDS011;48509;52.122;5.250;2022-12-16T23:51:11;113.5;;;74.0;;
62457;SDS011;48509;52.122;5.250;2022-12-16T23:52:47;125.9;;;76.2;;
62457;SDS011;48509;52.122;5.250;2022-12-16T23:54:23;165.8;;;93.6;;
62457;SDS011;48509;52.122;5.250;2022-12-16T23:57:37;122.6;;;77.2;;
62457;SDS011;48509;52.122;5.250;2022-12-16T23:59:13;124.3;;;78.11;;
